Terminal Aerodrome Forecast
Issued by NWS

Home | Current Version | Previous Version | Graphics & Text | Print | Product List | Glossary On
Versions: 1 2 3 4 5 6 7 8 9 10 11 12 13 14 15 16 17 18 19
000
FTUS42 KMHX 191000 AAA
TAFPGV
TAF AMD
KPGV 191028Z 1910/2006 05012KT P6SM -RA SCT010 OVC050
     FM191500 04012G20KT 5SM RA SCT007 OVC015
     FM192100 04010G16KT 4SM -RA BR SCT010 OVC030
      AMD LTD TO CLD VIS AND WIND=

USA.gov is the U.S. government's official web portal to all federal, state and local government web resources and services.